Time;durP1;ratioP1;P1;durP2;ratioP2;P2;SDS_P1;SDS_P2;PMS_P1;PMS_P2;Temp;Humidity;BMP_temperature;BMP_pressure;BME280_temperature;BME280_humidity;BME280_pressure;Samples;Min_cycle;Max_cycle;Signal;HPM_P1;HPM_P2
2022/08/22 00:01:53;;;;;;;4.37;2.27;;;16.80;99.90;16.40;100338;;;;555457;254;24118;-80
2022/08/22 00:04:46;;;;;;;5.53;2.40;;;16.80;99.90;16.50;100340;;;;555983;254;24146;-80
2022/08/22 00:07:19;;;;;;;2.77;2.40;;;16.80;99.90;16.50;100344;;;;552737;253;24112;-79
2022/08/22 00:09:47;;;;;;;4.43;2.47;;;16.90;99.90;16.50;100351;;;;552445;254;24110;-79
2022/08/22 00:12:21;;;;;;;2.93;2.50;;;16.90;99.90;16.50;100348;;;;547802;255;24162;-79
2022/08/22 00:15:15;;;;;;;2.20;1.97;;;16.90;99.90;16.50;100352;;;;549030;255;24268;-79
2022/08/22 00:18:01;;;;;;;2.30;2.07;;;16.90;99.90;16.50;100352;;;;571367;247;24144;-80
2022/08/22 00:20:44;;;;;;;2.63;2.43;;;16.90;99.90;16.60;100344;;;;566429;246;24106;-78
2022/08/22 00:23:12;;;;;;;5.90;2.47;;;16.90;99.90;16.60;100340;;;;575475;246;24094;-81
2022/08/22 00:26:04;;;;;;;3.70;2.53;;;16.90;99.90;16.60;100339;;;;575541;240;24123;-79
2022/08/22 00:28:41;;;;;;;5.20;2.77;;;16.90;99.90;16.60;100343;;;;575931;244;24113;-80
2022/08/22 00:31:24;;;;;;;2.80;2.50;;;16.90;99.90;16.60;100342;;;;574571;246;24132;-79
2022/08/22 00:34:10;;;;;;;4.37;2.70;;;16.90;99.90;16.60;100345;;;;573759;246;24092;-80
2022/08/22 00:36:44;;;;;;;2.97;2.67;;;16.90;99.90;16.60;100349;;;;573183;246;24126;-80
2022/08/22 00:39:36;;;;;;;2.73;2.60;;;16.90;99.90;16.60;100344;;;;575120;246;24143;-81
2022/08/22 00:42:41;;;;;;;2.70;2.50;;;16.90;99.90;16.60;100341;;;;573382;246;24075;-77
2022/08/22 00:45:32;;;;;;;2.80;2.30;;;17.00;99.90;16.60;100341;;;;572848;246;24103;-78
2022/08/22 00:48:44;;;;;;;4.87;3.37;;;17.00;99.90;16.60;100341;;;;572758;246;24178;-79
2022/08/22 00:51:36;;;;;;;2.60;2.40;;;17.00;99.90;16.60;100335;;;;576876;246;24060;-79
2022/08/22 00:54:49;;;;;;;4.17;2.97;;;17.00;99.90;16.60;100339;;;;571218;246;24095;-79
2022/08/22 00:57:52;;;;;;;2.83;2.37;;;17.00;99.90;16.60;100332;;;;575844;246;24156;-79
2022/08/22 01:00:25;;;;;;;2.80;2.70;;;17.00;99.90;16.60;100336;;;;576919;245;24134;-79
2022/08/22 01:03:14;;;;;;;4.93;2.50;;;16.90;99.90;16.60;100341;;;;553601;250;24109;-79
2022/08/22 01:06:19;;;;;;;3.03;2.77;;;16.90;99.90;16.60;100337;;;;560700;255;24214;-82
2022/08/22 01:09:20;;;;;;;4.90;2.97;;;16.90;99.90;16.60;100339;;;;571162;246;24082;-81
2022/08/22 01:12:25;;;;;;;2.93;2.63;;;16.90;99.90;16.60;100345;;;;553054;252;24160;-80
2022/08/22 01:14:55;;;;;;;7.07;2.87;;;16.90;99.90;16.60;100345;;;;552418;254;24151;-78
2022/08/22 01:17:44;;;;;;;3.43;2.57;;;16.90;99.90;16.60;100343;;;;555536;254;24176;-77
2022/08/22 01:20:54;;;;;;;3.17;2.97;;;16.90;99.90;16.60;100341;;;;555527;252;24158;-78
2022/08/22 01:23:58;;;;;;;4.73;2.60;;;16.90;99.90;16.60;100346;;;;556025;254;24106;-81
2022/08/22 01:27:09;;;;;;;4.50;3.23;;;16.90;99.90;16.60;100347;;;;552136;254;24115;-80
2022/08/22 01:29:50;;;;;;;2.87;2.67;;;16.90;99.90;16.50;100350;;;;553013;254;24146;-81
2022/08/22 01:32:48;;;;;;;3.63;3.20;;;16.90;99.90;16.60;100357;;;;555324;254;24192;-80
2022/08/22 01:35:44;;;;;;;3.30;3.00;;;16.90;99.90;16.60;100360;;;;551533;254;24129;-81
2022/08/22 01:38:36;;;;;;;3.93;3.20;;;16.90;99.90;16.60;100355;;;;552575;254;24134;-81
2022/08/22 01:41:25;;;;;;;8.17;3.37;;;16.90;99.90;16.60;100349;;;;553320;253;24127;-81
2022/08/22 01:44:15;;;;;;;3.17;2.80;;;16.90;99.90;16.60;100351;;;;553984;254;24110;-81
2022/08/22 01:47:01;;;;;;;4.37;3.57;;;17.00;99.90;16.70;100351;;;;553627;254;24130;-81
2022/08/22 01:49:38;;;;;;;3.80;3.40;;;16.90;99.90;16.70;100350;;;;556341;253;24146;-81
2022/08/22 01:52:11;;;;;;;3.00;2.80;;;17.00;99.90;16.60;100353;;;;552559;254;24123;-81
2022/08/22 01:54:54;;;;;;;5.27;3.53;;;17.00;99.90;16.70;100359;;;;553198;254;24167;-82
2022/08/22 01:57:19;;;;;;;4.00;3.27;;;17.00;99.90;16.70;100353;;;;563227;250;24141;-81
2022/08/22 01:59:51;;;;;;;4.50;2.90;;;17.00;99.90;16.70;100357;;;;564202;253;24169;-82
2022/08/22 02:02:43;;;;;;;8.47;3.53;;;16.90;99.90;16.70;100359;;;;552962;254;24136;-80
2022/08/22 02:05:17;;;;;;;4.10;2.97;;;17.00;99.90;16.70;100363;;;;553329;253;24159;-82
2022/08/22 02:08:02;;;;;;;3.83;3.53;;;17.00;99.90;16.70;100371;;;;552852;254;24158;-81
2022/08/22 02:10:57;;;;;;;3.17;2.97;;;17.00;99.90;16.70;100360;;;;555841;254;24167;-81
2022/08/22 02:13:54;;;;;;;4.40;3.20;;;17.00;99.90;16.70;100358;;;;556058;253;24204;-81
2022/08/22 02:16:32;;;;;;;3.07;2.87;;;17.00;99.90;16.70;100362;;;;555768;254;24121;-81
2022/08/22 02:18:59;;;;;;;3.27;2.97;;;16.90;99.90;16.70;100361;;;;552799;254;24111;-81
2022/08/22 02:21:49;;;;;;;3.17;2.83;;;17.00;99.90;16.70;100360;;;;555599;253;24159;-81
2022/08/22 02:24:37;;;;;;;4.60;3.00;;;17.00;99.90;16.70;100366;;;;552709;254;24111;-81
2022/08/22 02:27:12;;;;;;;3.77;3.47;;;17.00;99.90;16.70;100366;;;;552368;254;24163;-81
2022/08/22 02:29:58;;;;;;;3.07;2.83;;;16.90;99.90;16.70;100366;;;;552692;254;24112;-81
2022/08/22 02:32:40;;;;;;;3.37;3.13;;;17.00;99.90;16.70;100372;;;;555839;253;24126;-81
2022/08/22 02:35:32;;;;;;;5.67;3.27;;;17.00;99.90;16.70;100372;;;;555549;254;24152;-81
2022/08/22 02:38:50;;;;;;;5.00;3.57;;;17.00;99.90;16.70;100374;;;;552534;254;24128;-81
2022/08/22 02:41:21;;;;;;;5.93;3.30;;;17.00;99.90;16.70;100365;;;;552140;254;24182;-79
2022/08/22 02:43:54;;;;;;;4.93;3.47;;;17.00;99.90;16.70;100369;;;;552846;254;24141;-79
2022/08/22 02:46:53;;;;;;;3.80;3.10;;;16.90;99.90;16.70;100371;;;;555478;253;24134;-79
2022/08/22 02:49:27;;;;;;;4.97;3.07;;;16.90;99.90;16.60;100368;;;;552495;254;24174;-79
2022/08/22 02:52:14;;;;;;;4.10;3.03;;;16.80;99.90;16.60;100367;;;;564176;252;24110;-79
2022/08/22 02:54:53;;;;;;;3.57;3.27;;;16.80;99.90;16.50;100361;;;;553831;254;24153;-79
2022/08/22 02:57:33;;;;;;;3.77;3.47;;;16.80;99.90;16.50;100364;;;;553717;254;24145;-81
2022/08/22 03:00:22;;;;;;;5.40;3.20;;;16.80;99.90;16.50;100360;;;;553382;254;24162;-80
2022/08/22 03:02:56;;;;;;;4.67;3.63;;;16.70;99.90;16.50;100366;;;;556176;254;24107;-79
2022/08/22 03:05:36;;;;;;;3.40;3.10;;;16.70;99.90;16.50;100361;;;;556177;254;24133;-79
2022/08/22 03:08:25;;;;;;;3.50;3.20;;;16.80;99.90;16.50;100361;;;;556504;254;24169;-79
2022/08/22 03:11:01;;;;;;;7.13;3.30;;;16.70;99.90;16.50;100363;;;;553165;254;24128;-81
2022/08/22 03:13:53;;;;;;;6.57;3.17;;;16.80;99.90;16.50;100366;;;;556466;253;24114;-80
2022/08/22 03:16:28;;;;;;;3.63;3.20;;;16.80;99.90;16.50;100361;;;;552941;254;24178;-80
2022/08/22 03:19:13;;;;;;;3.83;3.33;;;16.70;99.90;16.50;100360;;;;555906;254;24114;-81
2022/08/22 03:22:20;;;;;;;3.97;3.20;;;16.70;99.90;16.40;100365;;;;553779;254;26299;-80
2022/08/22 03:24:53;;;;;;;6.90;3.20;;;16.60;99.90;16.30;100354;;;;554404;254;24107;-79
2022/08/22 03:27:40;;;;;;;3.80;3.20;;;16.50;99.90;16.30;100358;;;;554043;254;24230;-80
2022/08/22 03:30:17;;;;;;;5.07;2.97;;;16.50;99.90;16.20;100353;;;;554037;254;24117;-80
2022/08/22 03:32:54;;;;;;;3.30;3.10;;;16.40;99.90;16.20;100367;;;;553004;254;24122;-81
2022/08/22 03:35:24;;;;;;;3.23;3.00;;;16.40;99.90;16.10;100373;;;;552582;254;24150;-79
2022/08/22 03:37:52;;;;;;;3.33;3.03;;;16.30;99.90;16.10;100363;;;;556584;253;24132;-78
2022/08/22 03:40:32;;;;;;;4.37;3.70;;;16.30;99.90;16.10;100357;;;;555527;253;24138;-79
2022/08/22 03:43:50;;;;;;;4.13;3.23;;;16.30;99.90;16.00;100362;;;;550402;254;24121;-78
2022/08/22 03:46:27;;;;;;;2.90;2.70;;;16.30;99.90;16.10;100360;;;;544056;259;24137;-79
2022/08/22 03:49:13;;;;;;;5.00;3.37;;;16.30;99.90;16.00;100367;;;;570651;246;24064;-82
2022/08/22 03:52:17;;;;;;;3.80;3.40;;;16.20;99.90;16.10;100372;;;;566708;246;24096;-81
2022/08/22 03:54:57;;;;;;;5.13;3.50;;;16.20;99.90;16.10;100368;;;;573267;246;24066;-82
2022/08/22 03:57:53;;;;;;;6.37;3.90;;;16.30;99.90;16.10;100367;;;;577010;246;24094;-81
2022/08/22 04:00:59;;;;;;;4.83;3.77;;;16.30;99.90;16.20;100376;;;;572720;246;24109;-81
2022/08/22 04:04:02;;;;;;;6.83;3.47;;;16.40;99.90;16.20;100363;;;;573065;244;24077;-81
2022/08/22 04:06:50;;;;;;;5.57;4.17;;;16.40;99.90;16.30;100366;;;;565743;246;24085;-81
2022/08/22 04:09:41;;;;;;;5.17;3.80;;;16.50;99.90;16.30;100370;;;;576057;246;24058;-78
2022/08/22 04:12:53;;;;;;;5.43;3.53;;;16.50;99.90;16.40;100366;;;;575971;246;24090;-80
2022/08/22 04:15:24;;;;;;;5.37;3.87;;;16.60;99.90;16.50;100362;;;;573230;246;24088;-79
2022/08/22 04:18:20;;;;;;;8.50;3.40;;;16.70;99.90;16.60;100363;;;;573044;246;24194;-78
2022/08/22 04:21:15;;;;;;;5.87;4.00;;;16.80;99.90;16.70;100368;;;;570388;245;24056;-79
2022/08/22 04:24:08;;;;;;;3.70;3.10;;;17.00;99.90;16.80;100378;;;;570541;246;24094;-78
2022/08/22 04:26:54;;;;;;;4.07;3.53;;;17.10;99.90;16.80;100379;;;;575512;246;24056;-79
2022/08/22 04:29:28;;;;;;;3.43;3.17;;;17.00;99.90;16.90;100381;;;;572946;246;24075;-79
2022/08/22 04:32:26;;;;;;;4.43;4.03;;;17.10;99.90;17.00;100378;;;;573031;246;24065;-79
2022/08/22 04:35:08;;;;;;;4.73;3.50;;;17.20;99.90;17.10;100378;;;;580743;245;24107;-79
2022/08/22 04:37:51;;;;;;;6.67;3.40;;;17.30;99.90;17.10;100383;;;;572875;246;24051;-79
2022/08/22 04:40:35;;;;;;;4.87;3.63;;;17.40;99.90;17.20;100387;;;;573116;246;24132;-78
2022/08/22 04:43:14;;;;;;;3.50;3.13;;;17.50;99.90;17.30;100381;;;;575065;246;24102;-79
2022/08/22 04:46:00;;;;;;;6.50;4.20;;;17.60;99.90;17.50;100390;;;;571416;246;24097;-80
2022/08/22 04:48:32;;;;;;;4.93;3.10;;;17.70;99.90;17.70;100392;;;;575557;246;24091;-80
2022/08/22 04:51:02;;;;;;;2.93;2.70;;;18.10;99.90;17.90;100393;;;;572671;246;25114;-80
2022/08/22 04:54:07;;;;;;;4.67;3.20;;;18.10;99.90;18.20;100392;;;;572642;246;24130;-81
2022/08/22 04:57:05;;;;;;;3.57;3.27;;;18.40;99.90;18.60;100396;;;;573148;246;24102;-81
2022/08/22 04:59:34;;;;;;;3.43;3.10;;;19.20;99.90;19.00;100395;;;;573093;246;24130;-81
2022/08/22 05:02:05;;;;;;;3.30;2.93;;;19.20;99.90;19.50;100401;;;;572716;246;24114;-81
2022/08/22 05:04:39;;;;;;;3.10;2.30;;;19.60;99.90;20.40;100408;;;;584011;246;24096;-81
2022/08/22 05:07:18;;;;;;;4.10;2.03;;;20.60;99.90;21.60;100403;;;;572609;246;24137;-81
2022/08/22 05:09:46;;;;;;;4.17;2.00;;;21.80;99.90;22.50;100413;;;;573117;246;24083;-81
2022/08/22 05:12:14;;;;;;;4.30;2.60;;;22.80;99.90;23.30;100417;;;;575027;246;24074;-80
2022/08/22 05:14:50;;;;;;;2.37;1.87;;;23.60;99.90;24.10;100417;;;;575194;245;24080;-81
2022/08/22 05:17:18;;;;;;;2.83;2.10;;;24.30;99.90;24.80;100432;;;;574166;245;23121;-79
2022/08/22 05:19:46;;;;;;;5.03;1.93;;;25.00;99.90;25.50;100429;;;;576148;245;24114;-80
2022/08/22 05:22:14;;;;;;;2.03;1.73;;;25.70;99.90;26.10;100434;;;;576072;245;23091;-80
2022/08/22 05:24:42;;;;;;;2.00;1.80;;;26.30;99.90;26.30;100424;;;;575839;245;24137;-79
2022/08/22 05:27:19;;;;;;;2.00;1.77;;;26.60;99.90;26.50;100429;;;;575909;246;23085;-80
2022/08/22 05:29:47;;;;;;;4.17;1.60;;;27.00;99.90;26.50;100419;;;;572951;246;24075;-79
2022/08/22 05:32:25;;;;;;;6.27;1.90;;;26.90;99.90;26.50;100421;;;;575843;246;24201;-80
2022/08/22 05:34:53;;;;;;;2.80;1.83;;;26.90;99.90;26.80;100418;;;;572877;246;23070;-79
2022/08/22 05:37:46;;;;;;;4.50;1.90;;;27.10;99.90;27.50;100422;;;;575546;245;24087;-80
2022/08/22 05:40:23;;;;;;;4.73;1.80;;;27.70;99.90;28.40;100418;;;;572875;246;23066;-80
2022/08/22 05:42:49;;;;;;;2.42;1.62;;;28.60;99.90;28.30;100425;;;;572860;246;23111;-80
2022/08/22 05:45:17;;;;;;;2.30;1.85;;;28.70;99.90;27.70;100426;;;;584243;241;23133;-80
2022/08/22 05:47:45;;;;;;;2.28;1.60;;;28.30;99.90;27.20;100426;;;;572863;246;23074;-80
2022/08/22 05:50:13;;;;;;;2.87;1.67;;;27.80;99.90;26.70;100428;;;;575335;246;23106;-80
2022/08/22 05:52:53;;;;;;;4.10;1.53;;;27.30;99.90;26.40;100427;;;;575354;246;23092;-79
2022/08/22 05:55:35;;;;;;;2.23;1.70;;;26.90;99.90;26.00;100439;;;;575146;246;23138;-79
2022/08/22 05:58:42;;;;;;;2.90;1.90;;;26.50;99.90;25.80;100446;;;;569489;246;23092;-80
2022/08/22 06:01:28;;;;;;;4.73;2.00;;;26.20;99.90;25.60;100444;;;;575554;246;24122;-81
2022/08/22 06:04:06;;;;;;;3.87;1.80;;;25.90;99.90;25.60;100443;;;;575595;245;23109;-79
2022/08/22 06:06:42;;;;;;;5.50;1.97;;;25.90;99.90;25.60;100447;;;;572740;246;24075;-80
2022/08/22 06:09:13;;;;;;;3.93;2.20;;;25.80;99.90;25.80;100447;;;;572934;246;24071;-79
2022/08/22 06:11:46;;;;;;;2.50;1.77;;;25.90;99.90;26.20;100445;;;;573035;245;24157;-80
2022/08/22 06:14:29;;;;;;;2.53;1.70;;;26.30;99.90;27.10;100444;;;;572962;246;24092;-80
2022/08/22 06:17:04;;;;;;;5.93;1.80;;;28.20;99.90;28.30;100448;;;;572854;246;24059;-81
2022/08/22 06:19:31;;;;;;;5.17;2.17;;;28.20;99.90;29.60;100451;;;;575485;246;24098;-81
2022/08/22 06:21:59;;;;;;;1.95;1.65;;;29.50;99.90;31.40;100449;;;;575180;246;24101;-81
2022/08/22 06:24:31;;;;;;;4.75;2.20;;;31.10;99.90;33.50;100449;;;;570581;246;35154;-82
2022/08/22 06:26:55;;;;;;;3.35;1.80;;;33.10;99.90;34.60;100449;;;;573304;245;23071;-82
2022/08/22 06:29:41;;;;;;;4.18;1.98;;;34.40;99.90;35.40;100454;;;;576912;245;23199;-81
2022/08/22 06:32:23;;;;;;;3.12;2.05;;;35.40;99.90;36.00;100456;;;;573485;246;23077;-81
2022/08/22 06:34:51;;;;;;;2.95;2.08;;;36.10;99.00;36.10;100454;;;;573787;246;23067;-80
2022/08/22 06:37:22;;;;;;;4.05;2.37;;;36.40;95.90;36.80;100465;;;;573644;246;23138;-80
2022/08/22 06:39:50;;;;;;;5.55;2.33;;;36.90;96.60;38.20;100465;;;;576257;245;23084;-80
2022/08/22 06:42:18;;;;;;;5.28;2.15;;;38.20;90.80;39.00;100471;;;;576021;240;23066;-80
2022/08/22 06:44:49;;;;;;;5.57;2.08;;;39.10;88.40;39.50;100469;;;;575737;246;24111;-81
2022/08/22 06:47:19;;;;;;;5.90;2.00;;;39.70;78.80;38.90;100467;;;;573250;246;23061;-81
2022/08/22 06:49:47;;;;;;;5.43;2.22;;;39.50;74.80;39.30;100476;;;;584247;246;23079;-81
2022/08/22 06:52:18;;;;;;;4.65;2.30;;;39.60;74.50;40.80;100483;;;;573009;246;23062;-81
2022/08/22 06:54:46;;;;;;;2.20;2.00;;;40.80;72.00;42.10;100480;;;;572887;246;23070;-82
2022/08/22 06:57:29;;;;;;;2.67;1.95;;;41.90;67.10;43.40;100484;;;;575523;246;23126;-82
2022/08/22 06:59:57;;;;;;;3.03;2.08;;;43.20;63.20;44.10;100490;;;;570535;246;35083;-80
2022/08/22 07:02:42;;;;;;;1.80;1.67;;;44.20;55.70;43.30;100501;;;;573263;246;23097;-81
2022/08/22 07:05:16;;;;;;;5.20;2.25;;;44.00;56.50;42.30;100501;;;;568048;246;35109;-80
2022/08/22 07:07:45;;;;;;;2.65;1.80;;;41.70;56.50;40.40;100509;;;;573038;246;24173;-81
2022/08/22 07:10:13;;;;;;;2.53;2.03;;;39.90;58.30;38.50;100510;;;;584402;246;24143;-80
2022/08/22 07:12:43;;;;;;;2.17;1.98;;;39.80;58.20;36.70;100522;;;;575633;246;24128;-81
2022/08/22 07:15:11;;;;;;;4.07;2.17;;;38.10;61.70;35.00;100514;;;;573048;246;23080;-81
2022/08/22 07:17:39;;;;;;;3.45;2.22;;;36.40;67.60;33.50;100521;;;;570787;246;23104;-79
2022/08/22 07:20:28;;;;;;;8.38;2.65;;;34.70;70.10;32.40;100523;;;;575909;246;24086;-79
2022/08/22 07:23:02;;;;;;;5.40;2.20;;;33.40;73.60;31.30;100520;;;;583630;246;23078;-81
2022/08/22 07:25:30;;;;;;;5.53;2.22;;;32.10;80.10;30.50;100520;;;;573037;246;23102;-79
2022/08/22 07:28:32;;;;;;;16.05;2.53;;;31.10;83.00;29.80;100517;;;;575483;246;23077;-79
2022/08/22 07:31:03;;;;;;;2.70;2.08;;;30.30;87.60;29.10;100519;;;;572806;246;23105;-80
2022/08/22 07:33:49;;;;;;;3.20;1.90;;;29.60;90.40;29.00;100514;;;;575116;245;23075;-80
2022/08/22 07:36:34;;;;;;;3.97;2.00;;;29.30;91.20;29.80;100510;;;;575222;246;23074;-79
2022/08/22 07:39:14;;;;;;;4.65;2.10;;;29.70;92.70;30.90;100504;;;;577165;245;24125;-79
2022/08/22 07:42:09;;;;;;;3.03;1.58;;;30.80;91.60;31.10;100509;;;;570705;246;23127;-80
2022/08/22 07:44:44;;;;;;;8.00;2.17;;;31.00;88.70;30.60;100513;;;;576087;246;23076;-78
2022/08/22 07:47:09;;;;;;;4.62;2.15;;;31.00;88.70;29.70;100502;;;;561258;246;23118;-82
2022/08/22 07:49:53;;;;;;;2.72;1.80;;;30.40;89.40;29.40;100514;;;;575792;246;23099;-80
2022/08/22 07:52:17;;;;;;;4.03;1.62;;;29.90;90.60;29.80;100516;;;;572905;246;23156;-80
2022/08/22 07:54:55;;;;;;;5.32;2.08;;;30.00;91.30;30.40;100520;;;;584635;245;24102;-80
2022/08/22 07:57:36;;;;;;;2.83;1.70;;;30.50;91.20;30.50;100518;;;;573103;246;23075;-79
2022/08/22 08:00:09;;;;;;;1.75;1.42;;;30.80;90.00;30.70;100517;;;;572908;246;24113;-79
2022/08/22 08:02:32;;;;;;;5.55;1.83;;;31.00;88.80;31.10;100519;;;;573182;246;23092;-81
2022/08/22 08:05:05;;;;;;;3.65;1.60;;;31.70;86.30;31.40;100521;;;;577282;246;23159;-80
2022/08/22 08:07:31;;;;;;;5.53;2.25;;;31.80;85.60;31.40;100520;;;;584255;245;23069;-81
2022/08/22 08:10:04;;;;;;;2.92;1.65;;;31.60;83.40;31.10;100523;;;;573339;246;23069;-82
2022/08/22 08:12:31;;;;;;;2.05;1.55;;;31.60;83.40;30.60;100527;;;;572702;246;23145;-81
2022/08/22 08:15:00;;;;;;;5.85;2.70;;;31.20;84.30;30.00;100522;;;;575356;246;24105;-80
2022/08/22 08:17:27;;;;;;;2.47;1.50;;;30.60;85.80;29.40;100528;;;;584324;246;23069;-80
2022/08/22 08:19:55;;;;;;;5.28;1.87;;;30.00;87.30;28.80;100532;;;;575630;246;24144;-80
2022/08/22 08:22:23;;;;;;;3.30;1.60;;;29.40;90.10;28.30;100524;;;;584439;246;23069;-80
2022/08/22 08:24:51;;;;;;;5.80;1.93;;;28.90;90.00;27.60;100531;;;;575587;246;24109;-79
2022/08/22 08:30:17;;;;;;;3.23;1.77;;;27.70;92.10;26.60;100531;;;;573030;246;23068;-80
2022/08/22 08:32:52;;;;;;;3.10;2.00;;;27.20;93.80;26.30;100528;;;;573006;246;23141;-82
2022/08/22 08:35:19;;;;;;;4.30;2.40;;;26.80;95.20;26.40;100529;;;;573172;246;24085;-79
2022/08/22 08:37:53;;;;;;;5.20;1.80;;;26.70;96.70;26.40;100531;;;;575550;246;24094;-80
2022/08/22 08:40:33;;;;;;;4.60;1.90;;;26.60;98.00;26.20;100531;;;;575494;246;24118;-81
2022/08/22 08:43:33;;;;;;;1.67;1.53;;;26.60;98.00;26.20;100537;;;;575522;245;24180;-81
2022/08/22 08:46:01;;;;;;;3.80;1.87;;;26.50;98.60;26.10;100536;;;;575524;246;25144;-81
2022/08/22 08:48:48;;;;;;;6.10;1.90;;;26.50;99.60;26.20;100536;;;;575625;246;24117;-79
2022/08/22 08:51:37;;;;;;;7.70;5.47;;;26.50;99.80;26.30;100535;;;;573759;245;24059;-81
2022/08/22 08:54:34;;;;;;;3.77;2.00;;;26.60;99.90;26.50;100528;;;;576084;246;23077;-81
2022/08/22 08:57:35;;;;;;;2.60;1.63;;;26.80;99.90;27.20;100535;;;;559056;249;24124;-80
2022/08/22 09:00:30;;;;;;;4.70;1.73;;;27.30;99.90;27.80;100529;;;;571671;246;23081;-79
2022/08/22 09:03:37;;;;;;;3.57;1.50;;;28.10;99.40;27.90;100528;;;;572555;246;24102;-83
2022/08/22 09:06:39;;;;;;;3.43;1.63;;;28.30;98.70;28.30;100537;;;;573740;246;23104;-81
2022/08/22 09:09:10;;;;;;;2.53;1.60;;;28.90;97.10;28.60;100532;;;;572916;246;23191;-81
2022/08/22 09:12:12;;;;;;;2.45;1.50;;;28.90;97.10;28.50;100526;;;;575557;246;24123;-80
2022/08/22 09:15:04;;;;;;;2.27;1.83;;;28.90;96.90;28.40;100523;;;;573000;246;24118;-81
2022/08/22 09:17:40;;;;;;;5.57;2.60;;;28.80;97.50;28.70;100536;;;;575638;245;23073;-81
2022/08/22 09:20:17;;;;;;;3.10;1.33;;;29.00;97.40;29.00;100522;;;;572849;246;23073;-81
2022/08/22 09:22:47;;;;;;;2.85;1.50;;;29.30;96.80;29.60;100517;;;;575827;246;23074;-81
2022/08/22 09:25:21;;;;;;;5.20;1.80;;;29.80;96.10;30.00;100524;;;;572360;246;24155;-81
2022/08/22 09:28:04;;;;;;;2.97;1.62;;;30.70;93.50;30.40;100524;;;;575640;246;25149;-80
2022/08/22 09:31:05;;;;;;;2.45;1.55;;;30.70;93.50;30.80;100523;;;;575530;246;24079;-81
2022/08/22 09:33:39;;;;;;;5.50;1.90;;;31.20;91.70;30.50;100519;;;;572848;246;23085;-80
2022/08/22 09:36:13;;;;;;;2.90;1.52;;;31.00;91.70;30.30;100535;;;;572211;244;35116;-80
2022/08/22 09:39:04;;;;;;;3.55;1.58;;;30.90;91.70;29.70;100531;;;;575510;246;24132;-79
2022/08/22 09:41:59;;;;;;;2.70;1.90;;;30.40;92.10;29.00;100528;;;;573018;246;24097;-79
2022/08/22 09:44:42;;;;;;;2.75;1.80;;;29.70;92.40;28.80;100529;;;;576975;246;24169;-79
2022/08/22 09:47:19;;;;;;;3.15;1.83;;;29.40;93.60;29.00;100532;;;;575645;246;24100;-80
2022/08/22 09:50:14;;;;;;;2.83;1.80;;;29.40;94.70;28.90;100534;;;;574201;245;23088;-80
2022/08/22 09:53:10;;;;;;;4.87;1.73;;;29.00;94.50;28.50;100534;;;;572964;246;24062;-79
2022/08/22 09:55:53;;;;;;;5.32;1.40;;;29.00;94.50;28.20;100531;;;;572434;246;23196;-79
2022/08/22 09:58:42;;;;;;;4.73;1.70;;;28.40;94.90;28.00;100540;;;;572328;246;23066;-79
2022/08/22 10:01:32;;;;;;;3.07;1.40;;;28.20;95.60;27.70;100532;;;;572408;244;24159;-79
2022/08/22 10:04:43;;;;;;;5.57;1.73;;;28.10;95.60;27.40;100529;;;;573483;246;23091;-79
2022/08/22 10:07:23;;;;;;;4.50;2.13;;;27.50;98.00;27.10;100540;;;;574261;246;23077;-79
2022/08/22 10:10:12;;;;;;;6.50;2.27;;;27.50;98.00;26.90;100549;;;;576610;246;23066;-80
2022/08/22 10:12:40;;;;;;;2.50;2.00;;;27.30;98.00;26.60;100549;;;;573013;246;23137;-80
2022/08/22 10:15:11;;;;;;;5.27;2.17;;;27.10;98.10;26.50;100550;;;;573312;246;23134;-81
2022/08/22 10:17:39;;;;;;;8.77;2.10;;;26.90;99.00;26.40;100542;;;;575846;246;23073;-82
2022/08/22 10:20:13;;;;;;;9.37;2.07;;;26.90;99.30;26.40;100549;;;;576100;245;23142;-79
2022/08/22 10:22:56;;;;;;;6.10;1.63;;;26.80;99.90;26.30;100545;;;;572955;246;23086;-80
2022/08/22 10:25:48;;;;;;;3.67;1.67;;;26.70;99.90;26.00;100538;;;;569871;246;23062;-80
2022/08/22 10:28:38;;;;;;;4.60;2.10;;;26.50;99.90;25.80;100543;;;;573627;246;23069;-80
2022/08/22 10:31:37;;;;;;;3.93;1.83;;;26.10;99.90;25.70;100546;;;;572910;246;24155;-80
2022/08/22 10:34:15;;;;;;;6.03;2.17;;;26.20;99.90;25.90;100545;;;;573511;246;24048;-80
2022/08/22 10:36:57;;;;;;;3.43;1.90;;;26.10;99.90;26.00;100544;;;;573484;246;23072;-80
2022/08/22 10:39:28;;;;;;;1.67;1.47;;;26.30;99.90;26.10;100547;;;;583432;246;23083;-79
2022/08/22 10:41:58;;;;;;;4.70;1.90;;;26.40;99.90;26.20;100553;;;;573213;246;24116;-80
2022/08/22 10:44:47;;;;;;;2.47;1.73;;;26.50;99.90;26.30;100558;;;;575675;246;23086;-82
2022/08/22 10:47:15;;;;;;;3.60;1.90;;;26.60;99.90;26.40;100553;;;;572948;246;24118;-80
2022/08/22 10:50:04;;;;;;;3.17;1.87;;;26.70;99.90;26.40;100549;;;;575707;246;24120;-80
2022/08/22 10:52:31;;;;;;;3.77;1.80;;;26.80;99.90;26.20;100560;;;;570723;246;23089;-80
2022/08/22 10:55:06;;;;;;;4.40;1.57;;;26.70;99.90;26.10;100553;;;;575283;246;23081;-79
2022/08/22 10:57:51;;;;;;;3.77;2.03;;;26.60;99.90;26.10;100553;;;;584171;246;23079;-78
2022/08/22 11:00:47;;;;;;;6.43;2.10;;;26.60;99.90;26.20;100561;;;;572846;246;23106;-78
2022/08/22 11:03:42;;;;;;;2.90;1.90;;;26.60;99.90;26.20;100561;;;;573274;246;24141;-79
2022/08/22 11:06:13;;;;;;;5.70;1.57;;;26.60;99.90;26.20;100556;;;;573088;246;24120;-78
2022/08/22 11:08:46;;;;;;;3.20;2.07;;;26.60;99.90;26.20;100554;;;;572184;246;23098;-78
2022/08/22 11:11:25;;;;;;;2.93;1.90;;;26.60;99.90;26.20;100549;;;;572806;246;24086;-78
2022/08/22 11:14:11;;;;;;;7.03;1.60;;;26.60;99.90;26.20;100557;;;;574181;245;24053;-78
2022/08/22 11:17:07;;;;;;;2.77;1.80;;;26.50;99.90;26.10;100557;;;;573955;246;23106;-78
2022/08/22 11:19:53;;;;;;;3.83;2.00;;;26.40;99.90;26.00;100552;;;;561209;246;23102;-81
2022/08/22 11:22:55;;;;;;;2.13;1.80;;;26.40;99.90;26.00;100560;;;;574077;246;23066;-80
2022/08/22 11:25:31;;;;;;;4.23;1.90;;;26.30;99.90;25.90;100556;;;;573288;246;23063;-79
2022/08/22 11:28:36;;;;;;;4.73;2.17;;;26.30;99.90;25.80;100549;;;;576305;246;24072;-81
2022/08/22 11:31:35;;;;;;;2.10;1.90;;;26.20;99.90;25.80;100555;;;;572641;245;23144;-81
2022/08/22 11:34:11;;;;;;;4.60;1.93;;;26.20;99.90;25.70;100552;;;;571953;244;23075;-81
2022/08/22 11:36:45;;;;;;;6.33;1.87;;;26.10;99.90;25.50;100555;;;;584918;245;23085;-80
2022/08/22 11:39:16;;;;;;;7.20;2.57;;;26.00;99.90;25.50;100561;;;;572977;246;23078;-79
2022/08/22 11:41:54;;;;;;;3.13;2.07;;;25.80;99.90;25.50;100557;;;;573136;246;23093;-80
2022/08/22 11:44:28;;;;;;;2.73;2.03;;;25.80;99.90;25.40;100566;;;;583921;245;23084;-79
2022/08/22 11:46:56;;;;;;;6.03;2.00;;;25.80;99.90;25.30;100558;;;;575803;246;23080;-79
2022/08/22 11:49:31;;;;;;;3.60;1.60;;;25.70;99.90;25.30;100562;;;;575539;245;24050;-79
2022/08/22 11:52:23;;;;;;;3.37;1.57;;;25.70;99.90;25.30;100554;;;;575713;246;23092;-79
2022/08/22 11:55:18;;;;;;;2.73;1.60;;;25.70;99.90;25.30;100562;;;;572736;246;23082;-81
2022/08/22 11:57:51;;;;;;;3.37;1.90;;;25.70;99.90;25.30;100552;;;;572725;246;24072;-79
2022/08/22 12:00:31;;;;;;;2.43;1.70;;;25.70;99.90;25.20;100559;;;;584135;246;24113;-80
2022/08/22 12:03:20;;;;;;;4.10;1.70;;;25.60;99.90;25.20;100561;;;;569877;246;23088;-78
2022/08/22 12:05:51;;;;;;;2.90;1.50;;;25.60;99.90;25.30;100558;;;;579030;246;23100;-80
2022/08/22 12:08:34;;;;;;;3.63;1.70;;;25.60;99.90;25.30;100564;;;;573269;246;24126;-81
2022/08/22 12:11:08;;;;;;;2.30;1.73;;;25.70;99.90;25.20;100565;;;;575792;246;23087;-80
2022/08/22 12:14:06;;;;;;;2.23;1.80;;;25.60;99.90;25.20;100562;;;;584651;240;23073;-80
2022/08/22 12:16:35;;;;;;;3.97;2.10;;;25.60;99.90;25.30;100558;;;;573337;246;23063;-81
2022/08/22 12:19:31;;;;;;;3.60;1.60;;;25.70;99.90;25.40;100562;;;;573049;246;24106;-81